sensor_id;sensor_type;location;lat;lon;timestamp;temperature;humidity
6110;DHT22;3085;49.444;11.054;2022-09-29T00:01:06;8.80;99.90
6110;DHT22;3085;49.444;11.054;2022-09-29T00:03:33;8.80;99.90
6110;DHT22;3085;49.444;11.054;2022-09-29T00:06:00;8.80;99.90
6110;DHT22;3085;49.444;11.054;2022-09-29T00:08:28;8.90;99.90
6110;DHT22;3085;49.444;11.054;2022-09-29T00:10:57;8.90;99.90
6110;DHT22;3085;49.444;11.054;2022-09-29T00:13:24;8.90;99.90
6110;DHT22;3085;49.444;11.054;2022-09-29T00:15:55;8.90;99.90
6110;DHT22;3085;49.444;11.054;2022-09-29T00:18:22;8.90;99.90
6110;DHT22;3085;49.444;11.054;2022-09-29T00:20:56;8.80;99.90
6110;DHT22;3085;49.444;11.054;2022-09-29T00:23:23;8.60;99.90
6110;DHT22;3085;49.444;11.054;2022-09-29T00:26:03;8.70;99.90
6110;DHT22;3085;49.444;11.054;2022-09-29T00:28:31;8.70;99.90
6110;DHT22;3085;49.444;11.054;2022-09-29T00:30:59;8.70;99.90
6110;DHT22;3085;49.444;11.054;2022-09-29T00:33:28;8.70;99.90
6110;DHT22;3085;49.444;11.054;2022-09-29T00:35:57;8.80;99.90
6110;DHT22;3085;49.444;11.054;2022-09-29T00:38:25;8.70;99.90
6110;DHT22;3085;49.444;11.054;2022-09-29T00:40:52;8.80;99.90
6110;DHT22;3085;49.444;11.054;2022-09-29T00:43:22;8.80;99.90
6110;DHT22;3085;49.444;11.054;2022-09-29T00:45:50;8.80;99.90
6110;DHT22;3085;49.444;11.054;2022-09-29T00:48:23;8.90;99.90
6110;DHT22;3085;49.444;11.054;2022-09-29T00:50:55;8.90;99.90
6110;DHT22;3085;49.444;11.054;2022-09-29T00:53:22;8.90;99.90
6110;DHT22;3085;49.444;11.054;2022-09-29T00:55:52;8.80;99.90
6110;DHT22;3085;49.444;11.054;2022-09-29T00:58:28;8.80;99.90
6110;DHT22;3085;49.444;11.054;2022-09-29T01:00:57;8.80;99.90
6110;DHT22;3085;49.444;11.054;2022-09-29T01:03:26;8.60;99.90
6110;DHT22;3085;49.444;11.054;2022-09-29T01:05:56;8.70;99.90
6110;DHT22;3085;49.444;11.054;2022-09-29T01:08:27;8.70;99.90
6110;DHT22;3085;49.444;11.054;2022-09-29T01:10:56;8.70;99.90
6110;DHT22;3085;49.444;11.054;2022-09-29T01:13:24;8.70;99.90
6110;DHT22;3085;49.444;11.054;2022-09-29T01:15:52;8.70;99.90
6110;DHT22;3085;49.444;11.054;2022-09-29T01:18:19;8.70;99.90
6110;DHT22;3085;49.444;11.054;2022-09-29T01:20:52;8.90;99.90
6110;DHT22;3085;49.444;11.054;2022-09-29T01:23:49;8.80;99.90
6110;DHT22;3085;49.444;11.054;2022-09-29T01:26:55;8.70;99.90
6110;DHT22;3085;49.444;11.054;2022-09-29T01:32:56;8.70;99.90
6110;DHT22;3085;49.444;11.054;2022-09-29T01:35:29;8.70;99.90
6110;DHT22;3085;49.444;11.054;2022-09-29T01:38:09;8.60;99.90
6110;DHT22;3085;49.444;11.054;2022-09-29T01:40:46;8.60;99.90
6110;DHT22;3085;49.444;11.054;2022-09-29T01:43:17;8.70;99.90
6110;DHT22;3085;49.444;11.054;2022-09-29T01:45:49;8.80;99.90
6110;DHT22;3085;49.444;11.054;2022-09-29T01:48:23;8.60;99.90
6110;DHT22;3085;49.444;11.054;2022-09-29T01:50:54;8.70;99.90
6110;DHT22;3085;49.444;11.054;2022-09-29T01:53:27;8.60;99.90
6110;DHT22;3085;49.444;11.054;2022-09-29T01:56:00;8.60;99.90
6110;DHT22;3085;49.444;11.054;2022-09-29T01:58:33;8.60;99.90
6110;DHT22;3085;49.444;11.054;2022-09-29T02:01:06;8.50;99.90
6110;DHT22;3085;49.444;11.054;2022-09-29T02:03:39;8.60;99.90
6110;DHT22;3085;49.444;11.054;2022-09-29T02:06:11;8.70;99.90
6110;DHT22;3085;49.444;11.054;2022-09-29T02:08:41;8.70;99.90
6110;DHT22;3085;49.444;11.054;2022-09-29T02:11:10;8.60;99.90
6110;DHT22;3085;49.444;11.054;2022-09-29T02:13:40;8.70;99.90
6110;DHT22;3085;49.444;11.054;2022-09-29T02:16:09;8.70;99.90
6110;DHT22;3085;49.444;11.054;2022-09-29T02:18:44;8.70;99.90
6110;DHT22;3085;49.444;11.054;2022-09-29T02:21:13;8.70;99.90
6110;DHT22;3085;49.444;11.054;2022-09-29T02:23:40;8.70;99.90
6110;DHT22;3085;49.444;11.054;2022-09-29T02:26:08;8.60;99.90
6110;DHT22;3085;49.444;11.054;2022-09-29T02:28:36;8.60;99.90
6110;DHT22;3085;49.444;11.054;2022-09-29T02:31:03;8.60;99.90
6110;DHT22;3085;49.444;11.054;2022-09-29T02:33:30;8.60;99.90
6110;DHT22;3085;49.444;11.054;2022-09-29T02:36:07;8.80;99.90
6110;DHT22;3085;49.444;11.054;2022-09-29T02:38:42;8.70;99.90
6110;DHT22;3085;49.444;11.054;2022-09-29T02:41:19;8.60;99.90
6110;DHT22;3085;49.444;11.054;2022-09-29T02:44:20;8.50;99.90
6110;DHT22;3085;49.444;11.054;2022-09-29T02:47:05;8.70;99.90
6110;DHT22;3085;49.444;11.054;2022-09-29T02:49:48;8.70;99.90
6110;DHT22;3085;49.444;11.054;2022-09-29T02:52:24;8.70;99.90
6110;DHT22;3085;49.444;11.054;2022-09-29T02:55:03;8.60;99.90
6110;DHT22;3085;49.444;11.054;2022-09-29T02:57:36;8.60;99.90
6110;DHT22;3085;49.444;11.054;2022-09-29T03:00:07;8.50;99.90
6110;DHT22;3085;49.444;11.054;2022-09-29T03:02:37;8.60;99.90
6110;DHT22;3085;49.444;11.054;2022-09-29T03:05:05;8.70;99.90
6110;DHT22;3085;49.444;11.054;2022-09-29T03:07:36;8.70;99.90
6110;DHT22;3085;49.444;11.054;2022-09-29T03:10:05;8.70;99.90
6110;DHT22;3085;49.444;11.054;2022-09-29T03:12:32;8.60;99.90
6110;DHT22;3085;49.444;11.054;2022-09-29T03:14:59;8.60;99.90
6110;DHT22;3085;49.444;11.054;2022-09-29T03:17:26;8.50;99.90
6110;DHT22;3085;49.444;11.054;2022-09-29T03:19:53;8.60;99.90
6110;DHT22;3085;49.444;11.054;2022-09-29T03:22:20;8.50;99.90
6110;DHT22;3085;49.444;11.054;2022-09-29T03:24:48;8.40;99.90
6110;DHT22;3085;49.444;11.054;2022-09-29T03:27:15;8.40;99.90
6110;DHT22;3085;49.444;11.054;2022-09-29T03:29:42;8.40;99.90
6110;DHT22;3085;49.444;11.054;2022-09-29T03:32:09;8.30;99.90
6110;DHT22;3085;49.444;11.054;2022-09-29T03:34:36;8.30;99.90
6110;DHT22;3085;49.444;11.054;2022-09-29T03:37:03;8.30;99.90
6110;DHT22;3085;49.444;11.054;2022-09-29T03:39:30;8.30;99.90
6110;DHT22;3085;49.444;11.054;2022-09-29T03:41:58;8.30;99.90
6110;DHT22;3085;49.444;11.054;2022-09-29T03:44:25;8.30;99.90
6110;DHT22;3085;49.444;11.054;2022-09-29T03:46:52;8.40;99.90
6110;DHT22;3085;49.444;11.054;2022-09-29T03:49:19;9.60;99.90
6110;DHT22;3085;49.444;11.054;2022-09-29T03:51:46;8.40;99.90
6110;DHT22;3085;49.444;11.054;2022-09-29T03:54:13;8.40;99.90
6110;DHT22;3085;49.444;11.054;2022-09-29T03:56:39;8.30;99.90
6110;DHT22;3085;49.444;11.054;2022-09-29T03:59:08;8.20;99.90
6110;DHT22;3085;49.444;11.054;2022-09-29T04:01:37;8.20;99.90
6110;DHT22;3085;49.444;11.054;2022-09-29T04:04:04;8.30;99.90
6110;DHT22;3085;49.444;11.054;2022-09-29T04:06:31;8.30;99.90
6110;DHT22;3085;49.444;11.054;2022-09-29T04:08:58;8.30;99.90
6110;DHT22;3085;49.444;11.054;2022-09-29T04:11:25;8.20;99.90
6110;DHT22;3085;49.444;11.054;2022-09-29T04:13:52;8.30;99.90
6110;DHT22;3085;49.444;11.054;2022-09-29T04:16:20;8.30;99.90
6110;DHT22;3085;49.444;11.054;2022-09-29T04:18:47;8.30;99.90
6110;DHT22;3085;49.444;11.054;2022-09-29T04:21:14;8.10;99.90
6110;DHT22;3085;49.444;11.054;2022-09-29T04:23:41;8.00;99.90
6110;DHT22;3085;49.444;11.054;2022-09-29T04:26:08;8.00;99.90
6110;DHT22;3085;49.444;11.054;2022-09-29T04:28:36;8.00;99.90
6110;DHT22;3085;49.444;11.054;2022-09-29T04:31:04;8.00;99.90
6110;DHT22;3085;49.444;11.054;2022-09-29T04:33:32;8.10;99.90
6110;DHT22;3085;49.444;11.054;2022-09-29T04:36:00;8.00;99.90
6110;DHT22;3085;49.444;11.054;2022-09-29T04:38:27;8.00;99.90
6110;DHT22;3085;49.444;11.054;2022-09-29T04:40:54;8.00;99.90
6110;DHT22;3085;49.444;11.054;2022-09-29T04:43:21;8.00;99.90
6110;DHT22;3085;49.444;11.054;2022-09-29T04:45:47;8.00;99.90
6110;DHT22;3085;49.444;11.054;2022-09-29T04:48:14;8.70;99.90
6110;DHT22;3085;49.444;11.054;2022-09-29T04:50:43;8.10;99.90
6110;DHT22;3085;49.444;11.054;2022-09-29T04:53:10;8.10;99.90
6110;DHT22;3085;49.444;11.054;2022-09-29T04:55:37;8.00;99.90
6110;DHT22;3085;49.444;11.054;2022-09-29T04:58:04;8.00;99.90
6110;DHT22;3085;49.444;11.054;2022-09-29T05:00:32;8.00;99.90
6110;DHT22;3085;49.444;11.054;2022-09-29T05:02:59;8.00;99.90
6110;DHT22;3085;49.444;11.054;2022-09-29T05:05:27;8.10;99.90
6110;DHT22;3085;49.444;11.054;2022-09-29T05:07:55;8.00;99.90
6110;DHT22;3085;49.444;11.054;2022-09-29T05:10:24;8.30;99.90
6110;DHT22;3085;49.444;11.054;2022-09-29T05:12:51;7.70;99.90
6110;DHT22;3085;49.444;11.054;2022-09-29T05:15:18;7.80;99.90
6110;DHT22;3085;49.444;11.054;2022-09-29T05:17:45;7.60;99.90
6110;DHT22;3085;49.444;11.054;2022-09-29T05:20:12;7.60;99.90
6110;DHT22;3085;49.444;11.054;2022-09-29T05:22:41;7.60;99.90
6110;DHT22;3085;49.444;11.054;2022-09-29T05:25:09;7.60;99.90
6110;DHT22;3085;49.444;11.054;2022-09-29T05:27:37;7.70;99.90
6110;DHT22;3085;49.444;11.054;2022-09-29T05:30:05;7.60;99.90
6110;DHT22;3085;49.444;11.054;2022-09-29T05:32:32;7.70;99.90
6110;DHT22;3085;49.444;11.054;2022-09-29T05:34:59;7.80;99.90
6110;DHT22;3085;49.444;11.054;2022-09-29T05:37:27;7.80;99.90
6110;DHT22;3085;49.444;11.054;2022-09-29T05:39:53;7.70;99.90
6110;DHT22;3085;49.444;11.054;2022-09-29T05:42:22;7.80;99.90
6110;DHT22;3085;49.444;11.054;2022-09-29T05:44:50;7.80;99.90
6110;DHT22;3085;49.444;11.054;2022-09-29T05:47:17;7.80;99.90
6110;DHT22;3085;49.444;11.054;2022-09-29T05:49:44;7.80;99.90
6110;DHT22;3085;49.444;11.054;2022-09-29T05:52:10;7.90;99.90
6110;DHT22;3085;49.444;11.054;2022-09-29T05:54:37;7.90;99.90
6110;DHT22;3085;49.444;11.054;2022-09-29T05:57:04;7.90;99.90
6110;DHT22;3085;49.444;11.054;2022-09-29T05:59:32;8.30;99.90
6110;DHT22;3085;49.444;11.054;2022-09-29T06:01:59;7.80;99.90
6110;DHT22;3085;49.444;11.054;2022-09-29T06:04:26;7.80;99.90
6110;DHT22;3085;49.444;11.054;2022-09-29T06:06:53;7.90;99.90
6110;DHT22;3085;49.444;11.054;2022-09-29T06:09:21;7.90;99.90
6110;DHT22;3085;49.444;11.054;2022-09-29T06:11:48;7.90;99.90
6110;DHT22;3085;49.444;11.054;2022-09-29T06:14:15;7.60;99.90
6110;DHT22;3085;49.444;11.054;2022-09-29T06:16:43;7.40;99.90
6110;DHT22;3085;49.444;11.054;2022-09-29T06:19:10;7.40;99.90
6110;DHT22;3085;49.444;11.054;2022-09-29T06:21:38;7.40;99.90
6110;DHT22;3085;49.444;11.054;2022-09-29T06:24:05;7.60;99.90
6110;DHT22;3085;49.444;11.054;2022-09-29T06:26:33;7.40;99.90
6110;DHT22;3085;49.444;11.054;2022-09-29T06:29:00;7.10;99.90
6110;DHT22;3085;49.444;11.054;2022-09-29T06:31:28;7.00;99.90
6110;DHT22;3085;49.444;11.054;2022-09-29T06:33:57;7.20;99.90
6110;DHT22;3085;49.444;11.054;2022-09-29T06:36:27;7.10;99.90
6110;DHT22;3085;49.444;11.054;2022-09-29T06:39:13;7.30;99.90
6110;DHT22;3085;49.444;11.054;2022-09-29T06:41:41;7.40;99.90
6110;DHT22;3085;49.444;11.054;2022-09-29T06:44:11;7.50;99.90
6110;DHT22;3085;49.444;11.054;2022-09-29T06:46:38;7.60;99.90
6110;DHT22;3085;49.444;11.054;2022-09-29T06:49:06;7.70;99.90
6110;DHT22;3085;49.444;11.054;2022-09-29T06:51:34;7.80;99.90
6110;DHT22;3085;49.444;11.054;2022-09-29T06:54:02;7.40;99.90
6110;DHT22;3085;49.444;11.054;2022-09-29T06:56:29;7.30;99.90
6110;DHT22;3085;49.444;11.054;2022-09-29T06:58:56;7.50;99.90
6110;DHT22;3085;49.444;11.054;2022-09-29T07:01:22;7.40;99.90
6110;DHT22;3085;49.444;11.054;2022-09-29T07:03:49;7.30;99.90
6110;DHT22;3085;49.444;11.054;2022-09-29T07:06:17;7.40;99.90
6110;DHT22;3085;49.444;11.054;2022-09-29T07:08:44;7.50;99.90
6110;DHT22;3085;49.444;11.054;2022-09-29T07:11:11;7.50;99.90
6110;DHT22;3085;49.444;11.054;2022-09-29T07:13:38;7.60;99.90
6110;DHT22;3085;49.444;11.054;2022-09-29T07:16:05;7.90;99.90
6110;DHT22;3085;49.444;11.054;2022-09-29T07:18:33;7.80;99.90
6110;DHT22;3085;49.444;11.054;2022-09-29T07:21:02;7.90;99.90
6110;DHT22;3085;49.444;11.054;2022-09-29T07:23:31;7.90;99.90
6110;DHT22;3085;49.444;11.054;2022-09-29T07:25:58;8.00;99.90
6110;DHT22;3085;49.444;11.054;2022-09-29T07:28:25;8.20;99.90
6110;DHT22;3085;49.444;11.054;2022-09-29T07:30:59;8.40;99.90
6110;DHT22;3085;49.444;11.054;2022-09-29T07:33:26;8.20;99.90
6110;DHT22;3085;49.444;11.054;2022-09-29T07:35:53;8.30;99.90
6110;DHT22;3085;49.444;11.054;2022-09-29T07:38:21;8.20;99.90
6110;DHT22;3085;49.444;11.054;2022-09-29T07:40:49;8.40;99.90
6110;DHT22;3085;49.444;11.054;2022-09-29T07:43:15;8.20;99.90
6110;DHT22;3085;49.444;11.054;2022-09-29T07:45:47;8.00;99.90
6110;DHT22;3085;49.444;11.054;2022-09-29T07:48:15;8.10;99.90
6110;DHT22;3085;49.444;11.054;2022-09-29T07:50:51;8.40;99.90
6110;DHT22;3085;49.444;11.054;2022-09-29T07:53:18;8.60;99.90
6110;DHT22;3085;49.444;11.054;2022-09-29T07:55:45;8.80;99.90
6110;DHT22;3085;49.444;11.054;2022-09-29T07:58:13;8.70;99.90
6110;DHT22;3085;49.444;11.054;2022-09-29T08:00:40;8.40;99.90
6110;DHT22;3085;49.444;11.054;2022-09-29T08:03:08;8.60;99.90
6110;DHT22;3085;49.444;11.054;2022-09-29T08:05:35;8.70;99.90
6110;DHT22;3085;49.444;11.054;2022-09-29T08:08:03;8.80;99.90
6110;DHT22;3085;49.444;11.054;2022-09-29T08:10:31;8.80;99.90
6110;DHT22;3085;49.444;11.054;2022-09-29T08:12:59;8.80;99.90
6110;DHT22;3085;49.444;11.054;2022-09-29T08:15:27;9.00;99.90
6110;DHT22;3085;49.444;11.054;2022-09-29T08:17:57;9.10;99.90
6110;DHT22;3085;49.444;11.054;2022-09-29T08:20:24;9.10;99.90
6110;DHT22;3085;49.444;11.054;2022-09-29T08:22:51;9.50;99.90
6110;DHT22;3085;49.444;11.054;2022-09-29T08:25:21;9.40;99.90
6110;DHT22;3085;49.444;11.054;2022-09-29T08:27:50;9.50;99.90
6110;DHT22;3085;49.444;11.054;2022-09-29T08:30:17;9.60;99.90
6110;DHT22;3085;49.444;11.054;2022-09-29T08:32:51;9.50;99.90
6110;DHT22;3085;49.444;11.054;2022-09-29T08:35:18;11.00;99.90
6110;DHT22;3085;49.444;11.054;2022-09-29T08:37:44;9.60;99.90
6110;DHT22;3085;49.444;11.054;2022-09-29T08:40:11;9.70;99.90
6110;DHT22;3085;49.444;11.054;2022-09-29T08:42:48;9.70;99.90
6110;DHT22;3085;49.444;11.054;2022-09-29T08:45:24;9.70;99.90
6110;DHT22;3085;49.444;11.054;2022-09-29T08:47:56;9.90;99.90
6110;DHT22;3085;49.444;11.054;2022-09-29T08:50:29;10.10;99.90
6110;DHT22;3085;49.444;11.054;2022-09-29T08:53:00;10.20;99.90
6110;DHT22;3085;49.444;11.054;2022-09-29T08:55:34;10.20;99.90
6110;DHT22;3085;49.444;11.054;2022-09-29T08:58:09;10.40;99.90
6110;DHT22;3085;49.444;11.054;2022-09-29T09:00:42;10.40;99.90
6110;DHT22;3085;49.444;11.054;2022-09-29T09:03:31;10.60;99.90
6110;DHT22;3085;49.444;11.054;2022-09-29T09:06:10;10.70;99.90
6110;DHT22;3085;49.444;11.054;2022-09-29T09:08:55;9.70;99.90
6110;DHT22;3085;49.444;11.054;2022-09-29T09:11:36;10.70;99.90
6110;DHT22;3085;49.444;11.054;2022-09-29T09:14:17;10.90;99.90
6110;DHT22;3085;49.444;11.054;2022-09-29T09:16:56;10.80;99.90
6110;DHT22;3085;49.444;11.054;2022-09-29T09:19:37;10.90;99.90
6110;DHT22;3085;49.444;11.054;2022-09-29T09:22:19;10.90;99.90
6110;DHT22;3085;49.444;11.054;2022-09-29T09:24:53;11.00;99.90
6110;DHT22;3085;49.444;11.054;2022-09-29T09:27:24;11.10;99.90
6110;DHT22;3085;49.444;11.054;2022-09-29T09:30:00;11.10;99.90
6110;DHT22;3085;49.444;11.054;2022-09-29T09:32:29;11.10;99.90
6110;DHT22;3085;49.444;11.054;2022-09-29T09:35:01;11.10;99.90
6110;DHT22;3085;49.444;11.054;2022-09-29T09:37:32;12.30;99.90
6110;DHT22;3085;49.444;11.054;2022-09-29T09:40:04;11.20;99.90
6110;DHT22;3085;49.444;11.054;2022-09-29T09:42:37;11.10;99.90
6110;DHT22;3085;49.444;11.054;2022-09-29T09:45:09;11.30;99.90
6110;DHT22;3085;49.444;11.054;2022-09-29T09:47:44;11.30;99.90
6110;DHT22;3085;49.444;11.054;2022-09-29T09:50:17;11.30;99.90
6110;DHT22;3085;49.444;11.054;2022-09-29T09:52:50;11.40;99.90
6110;DHT22;3085;49.444;11.054;2022-09-29T09:55:18;11.50;99.90
6110;DHT22;3085;49.444;11.054;2022-09-29T09:58:27;11.60;99.90
6110;DHT22;3085;49.444;11.054;2022-09-29T10:00:57;11.60;99.90
6110;DHT22;3085;49.444;11.054;2022-09-29T10:03:26;11.70;99.90
6110;DHT22;3085;49.444;11.054;2022-09-29T10:05:55;11.80;99.90
6110;DHT22;3085;49.444;11.054;2022-09-29T10:08:25;11.90;99.90
6110;DHT22;3085;49.444;11.054;2022-09-29T10:10:54;11.80;99.90
6110;DHT22;3085;49.444;11.054;2022-09-29T10:13:25;11.80;99.90
6110;DHT22;3085;49.444;11.054;2022-09-29T10:15:56;11.80;99.90
6110;DHT22;3085;49.444;11.054;2022-09-29T10:18:28;11.90;99.90
6110;DHT22;3085;49.444;11.054;2022-09-29T10:20:58;11.90;99.90
6110;DHT22;3085;49.444;11.054;2022-09-29T10:23:30;11.90;99.90
6110;DHT22;3085;49.444;11.054;2022-09-29T10:26:00;12.00;99.90
6110;DHT22;3085;49.444;11.054;2022-09-29T10:28:35;12.10;99.90
6110;DHT22;3085;49.444;11.054;2022-09-29T10:31:15;12.10;99.90
6110;DHT22;3085;49.444;11.054;2022-09-29T10:33:47;12.10;99.90
6110;DHT22;3085;49.444;11.054;2022-09-29T10:36:17;12.20;99.90
6110;DHT22;3085;49.444;11.054;2022-09-29T10:38:47;12.30;99.90
6110;DHT22;3085;49.444;11.054;2022-09-29T10:41:14;12.20;99.90
6110;DHT22;3085;49.444;11.054;2022-09-29T10:43:45;12.20;99.90
6110;DHT22;3085;49.444;11.054;2022-09-29T10:46:33;12.30;99.90
6110;DHT22;3085;49.444;11.054;2022-09-29T10:49:08;12.30;99.90
6110;DHT22;3085;49.444;11.054;2022-09-29T10:51:38;12.60;99.90
6110;DHT22;3085;49.444;11.054;2022-09-29T10:54:07;12.40;99.90
6110;DHT22;3085;49.444;11.054;2022-09-29T10:56:34;12.30;99.90
6110;DHT22;3085;49.444;11.054;2022-09-29T10:59:01;12.50;99.90
6110;DHT22;3085;49.444;11.054;2022-09-29T11:01:30;12.50;99.90
6110;DHT22;3085;49.444;11.054;2022-09-29T11:04:00;12.50;99.90
6110;DHT22;3085;49.444;11.054;2022-09-29T11:06:30;12.70;99.90
6110;DHT22;3085;49.444;11.054;2022-09-29T11:09:00;12.70;99.90
6110;DHT22;3085;49.444;11.054;2022-09-29T11:11:29;12.60;99.90
6110;DHT22;3085;49.444;11.054;2022-09-29T11:13:57;12.90;99.90
6110;DHT22;3085;49.444;11.054;2022-09-29T11:16:28;12.90;99.90
6110;DHT22;3085;49.444;11.054;2022-09-29T11:18:59;12.90;99.90
6110;DHT22;3085;49.444;11.054;2022-09-29T11:24:56;12.90;99.90
6110;DHT22;3085;49.444;11.054;2022-09-29T11:27:32;13.10;99.90
6110;DHT22;3085;49.444;11.054;2022-09-29T11:30:05;13.10;99.90
6110;DHT22;3085;49.444;11.054;2022-09-29T11:32:40;13.10;99.90
6110;DHT22;3085;49.444;11.054;2022-09-29T11:35:20;13.10;99.90
6110;DHT22;3085;49.444;11.054;2022-09-29T11:38:06;13.10;99.90
6110;DHT22;3085;49.444;11.054;2022-09-29T11:40:44;13.10;99.90
6110;DHT22;3085;49.444;11.054;2022-09-29T11:43:27;13.20;99.90
6110;DHT22;3085;49.444;11.054;2022-09-29T11:46:05;13.30;99.90
6110;DHT22;3085;49.444;11.054;2022-09-29T11:48:51;13.20;99.90
6110;DHT22;3085;49.444;11.054;2022-09-29T11:51:27;13.30;99.90
6110;DHT22;3085;49.444;11.054;2022-09-29T11:54:05;13.00;99.90
6110;DHT22;3085;49.444;11.054;2022-09-29T11:56:47;12.90;99.90
6110;DHT22;3085;49.444;11.054;2022-09-29T11:59:29;13.00;99.90
6110;DHT22;3085;49.444;11.054;2022-09-29T12:02:23;12.90;99.90
6110;DHT22;3085;49.444;11.054;2022-09-29T12:04:58;12.90;99.90
6110;DHT22;3085;49.444;11.054;2022-09-29T12:07:36;12.90;99.90
6110;DHT22;3085;49.444;11.054;2022-09-29T12:10:32;12.90;99.90
6110;DHT22;3085;49.444;11.054;2022-09-29T12:13:08;12.90;99.90
6110;DHT22;3085;49.444;11.054;2022-09-29T12:15:49;13.00;99.90
6110;DHT22;3085;49.444;11.054;2022-09-29T12:18:20;13.00;99.90
6110;DHT22;3085;49.444;11.054;2022-09-29T12:20:50;12.90;99.90
6110;DHT22;3085;49.444;11.054;2022-09-29T12:23:20;12.90;99.90
6110;DHT22;3085;49.444;11.054;2022-09-29T12:25:54;13.00;99.90
6110;DHT22;3085;49.444;11.054;2022-09-29T12:28:27;12.90;99.90
6110;DHT22;3085;49.444;11.054;2022-09-29T12:30:59;13.00;99.90
6110;DHT22;3085;49.444;11.054;2022-09-29T12:33:32;12.90;99.90
6110;DHT22;3085;49.444;11.054;2022-09-29T12:36:14;12.80;99.90
6110;DHT22;3085;49.444;11.054;2022-09-29T12:39:04;12.80;99.90
6110;DHT22;3085;49.444;11.054;2022-09-29T12:41:37;12.70;99.90
6110;DHT22;3085;49.444;11.054;2022-09-29T12:44:15;12.70;99.90
6110;DHT22;3085;49.444;11.054;2022-09-29T12:46:46;12.70;99.90
6110;DHT22;3085;49.444;11.054;2022-09-29T12:49:18;12.70;99.90
6110;DHT22;3085;49.444;11.054;2022-09-29T12:51:48;13.00;99.90
6110;DHT22;3085;49.444;11.054;2022-09-29T12:54:19;12.50;99.90
6110;DHT22;3085;49.444;11.054;2022-09-29T12:56:52;12.50;99.90
6110;DHT22;3085;49.444;11.054;2022-09-29T12:59:28;12.50;99.90
6110;DHT22;3085;49.444;11.054;2022-09-29T13:01:57;12.40;99.90
6110;DHT22;3085;49.444;11.054;2022-09-29T13:04:48;12.40;99.90
6110;DHT22;3085;49.444;11.054;2022-09-29T13:07:38;11.60;99.90
6110;DHT22;3085;49.444;11.054;2022-09-29T13:10:34;12.50;99.90
6110;DHT22;3085;49.444;11.054;2022-09-29T13:13:17;12.50;99.90
6110;DHT22;3085;49.444;11.054;2022-09-29T13:15:57;12.40;99.90
6110;DHT22;3085;49.444;11.054;2022-09-29T13:19:02;12.50;99.90
6110;DHT22;3085;49.444;11.054;2022-09-29T13:21:38;12.50;99.90
6110;DHT22;3085;49.444;11.054;2022-09-29T13:24:21;12.40;99.90
6110;DHT22;3085;49.444;11.054;2022-09-29T13:27:09;12.50;99.90
6110;DHT22;3085;49.444;11.054;2022-09-29T13:29:44;12.40;99.90
6110;DHT22;3085;49.444;11.054;2022-09-29T13:32:14;12.50;99.90
6110;DHT22;3085;49.444;11.054;2022-09-29T13:34:47;12.50;99.90
6110;DHT22;3085;49.444;11.054;2022-09-29T13:37:17;12.50;99.90
6110;DHT22;3085;49.444;11.054;2022-09-29T13:39:53;12.60;99.90
6110;DHT22;3085;49.444;11.054;2022-09-29T13:42:35;12.60;99.90
6110;DHT22;3085;49.444;11.054;2022-09-29T13:45:14;12.70;99.90
6110;DHT22;3085;49.444;11.054;2022-09-29T13:47:47;12.60;99.90
6110;DHT22;3085;49.444;11.054;2022-09-29T13:50:39;12.60;99.90
6110;DHT22;3085;49.444;11.054;2022-09-29T13:53:26;12.60;99.90
6110;DHT22;3085;49.444;11.054;2022-09-29T13:55:55;12.60;99.90
6110;DHT22;3085;49.444;11.054;2022-09-29T13:58:36;12.60;99.90
6110;DHT22;3085;49.444;11.054;2022-09-29T14:01:05;12.60;99.90
6110;DHT22;3085;49.444;11.054;2022-09-29T14:03:34;12.60;99.90
6110;DHT22;3085;49.444;11.054;2022-09-29T14:06:12;12.50;99.90
6110;DHT22;3085;49.444;11.054;2022-09-29T14:08:43;12.60;99.90
6110;DHT22;3085;49.444;11.054;2022-09-29T14:11:24;12.50;99.90
6110;DHT22;3085;49.444;11.054;2022-09-29T14:13:56;12.40;99.90
6110;DHT22;3085;49.444;11.054;2022-09-29T14:16:47;12.50;99.90
6110;DHT22;3085;49.444;11.054;2022-09-29T14:28:24;12.30;99.90
6110;DHT22;3085;49.444;11.054;2022-09-29T14:30:56;12.20;99.90
6110;DHT22;3085;49.444;11.054;2022-09-29T14:33:29;12.20;99.90
6110;DHT22;3085;49.444;11.054;2022-09-29T14:36:06;12.20;99.90
6110;DHT22;3085;49.444;11.054;2022-09-29T14:38:38;12.20;99.90
6110;DHT22;3085;49.444;11.054;2022-09-29T14:41:20;12.10;99.90
6110;DHT22;3085;49.444;11.054;2022-09-29T14:43:50;12.10;99.90
6110;DHT22;3085;49.444;11.054;2022-09-29T14:46:48;12.10;99.90
6110;DHT22;3085;49.444;11.054;2022-09-29T14:49:48;12.00;99.90
6110;DHT22;3085;49.444;11.054;2022-09-29T14:52:46;12.10;99.90
6110;DHT22;3085;49.444;11.054;2022-09-29T14:55:23;12.00;99.90
6110;DHT22;3085;49.444;11.054;2022-09-29T14:58:07;11.90;99.90
6110;DHT22;3085;49.444;11.054;2022-09-29T15:00:49;11.90;99.90
6110;DHT22;3085;49.444;11.054;2022-09-29T15:03:25;11.90;99.90
6110;DHT22;3085;49.444;11.054;2022-09-29T15:06:05;12.10;99.90
6110;DHT22;3085;49.444;11.054;2022-09-29T15:08:33;11.60;99.90
6110;DHT22;3085;49.444;11.054;2022-09-29T15:11:02;11.90;99.90
6110;DHT22;3085;49.444;11.054;2022-09-29T15:13:32;12.00;99.90
6110;DHT22;3085;49.444;11.054;2022-09-29T15:16:02;12.00;99.90
6110;DHT22;3085;49.444;11.054;2022-09-29T15:18:55;12.00;99.90
6110;DHT22;3085;49.444;11.054;2022-09-29T15:21:35;11.90;99.90
6110;DHT22;3085;49.444;11.054;2022-09-29T15:24:32;11.90;99.90
6110;DHT22;3085;49.444;11.054;2022-09-29T15:27:05;11.90;99.90
6110;DHT22;3085;49.444;11.054;2022-09-29T15:29:34;11.90;99.90
6110;DHT22;3085;49.444;11.054;2022-09-29T15:32:01;11.90;99.90
6110;DHT22;3085;49.444;11.054;2022-09-29T15:34:30;11.90;99.90
6110;DHT22;3085;49.444;11.054;2022-09-29T15:36:57;11.90;99.90
6110;DHT22;3085;49.444;11.054;2022-09-29T15:39:41;11.90;99.90
6110;DHT22;3085;49.444;11.054;2022-09-29T15:42:14;11.80;99.90
6110;DHT22;3085;49.444;11.054;2022-09-29T15:44:45;11.80;99.90
6110;DHT22;3085;49.444;11.054;2022-09-29T15:47:21;11.80;99.90
6110;DHT22;3085;49.444;11.054;2022-09-29T15:49:50;11.80;99.90
6110;DHT22;3085;49.444;11.054;2022-09-29T15:52:18;11.80;99.90
6110;DHT22;3085;49.444;11.054;2022-09-29T15:54:52;11.80;99.90
6110;DHT22;3085;49.444;11.054;2022-09-29T15:57:39;11.80;99.90
6110;DHT22;3085;49.444;11.054;2022-09-29T16:03:29;11.80;99.90
6110;DHT22;3085;49.444;11.054;2022-09-29T16:06:13;11.70;99.90
6110;DHT22;3085;49.444;11.054;2022-09-29T16:08:45;11.60;99.90
6110;DHT22;3085;49.444;11.054;2022-09-29T16:11:20;11.60;99.90
6110;DHT22;3085;49.444;11.054;2022-09-29T16:13:54;11.50;99.90
6110;DHT22;3085;49.444;11.054;2022-09-29T16:16:32;11.50;99.90
6110;DHT22;3085;49.444;11.054;2022-09-29T16:19:06;11.50;99.90
6110;DHT22;3085;49.444;11.054;2022-09-29T16:21:35;11.40;99.90
6110;DHT22;3085;49.444;11.054;2022-09-29T16:24:07;11.30;99.90
6110;DHT22;3085;49.444;11.054;2022-09-29T16:26:39;11.20;99.90
6110;DHT22;3085;49.444;11.054;2022-09-29T16:29:23;11.10;99.90
6110;DHT22;3085;49.444;11.054;2022-09-29T16:31:51;11.00;99.90
6110;DHT22;3085;49.444;11.054;2022-09-29T16:34:24;11.10;99.90
6110;DHT22;3085;49.444;11.054;2022-09-29T16:36:52;11.10;99.90
6110;DHT22;3085;49.444;11.054;2022-09-29T16:39:21;11.00;99.90
6110;DHT22;3085;49.444;11.054;2022-09-29T16:41:51;11.00;99.90
6110;DHT22;3085;49.444;11.054;2022-09-29T16:44:24;11.00;99.90
6110;DHT22;3085;49.444;11.054;2022-09-29T16:46:54;11.00;99.90